Time;durP1;ratioP1;P1;durP2;ratioP2;P2;SDS_P1;SDS_P2;PMS_P1;PMS_P2;Temp;Humidity;BMP_temperature;BMP_pressure;BME280_temperature;BME280_humidity;BME280_pressure;Samples;Min_cycle;Max_cycle;Signal;HPM_P1;HPM_P2
2023/06/21 00:01:46;;;;;;;10.10;8.80;;;;;;;25.33;56.21;101377.95;106921;1256;25339;-50
2023/06/21 00:04:13;;;;;;;9.40;8.50;;;;;;;25.32;56.19;101379.77;107059;1254;25388;-50
2023/06/21 00:06:40;;;;;;;10.80;9.00;;;;;;;25.32;56.31;101382.26;106917;1265;25322;-50
2023/06/21 00:09:07;;;;;;;9.00;8.10;;;;;;;25.31;56.22;101377.73;107121;1268;25391;-50
2023/06/21 00:11:34;;;;;;;9.80;8.80;;;;;;;25.29;56.31;101376.44;106787;1257;25401;-50
2023/06/21 00:14:02;;;;;;;10.10;9.00;;;;;;;25.28;56.39;101376.20;107108;1255;25321;-50
2023/06/21 00:16:30;;;;;;;11.30;8.90;;;;;;;25.26;56.34;101375.27;107077;1259;25519;-50
2023/06/21 00:18:58;;;;;;;9.00;8.20;;;;;;;25.25;56.44;101373.41;107040;1257;25350;-50
2023/06/21 00:21:25;;;;;;;10.00;9.00;;;;;;;25.23;56.27;101367.48;107116;1257;25351;-50
2023/06/21 00:23:52;;;;;;;9.80;8.90;;;;;;;25.22;56.19;101370.58;107089;1259;25321;-50
2023/06/21 00:26:19;;;;;;;9.90;8.90;;;;;;;25.20;56.11;101367.52;107087;1253;22860;-50
2023/06/21 00:28:46;;;;;;;9.60;8.70;;;;;;;25.19;56.32;101368.71;107175;1256;25333;-50
2023/06/21 00:31:13;;;;;;;9.40;8.30;;;;;;;25.17;56.51;101368.27;107074;1257;25364;-51
2023/06/21 00:33:40;;;;;;;9.60;8.70;;;;;;;25.17;56.53;101370.63;107029;1256;25329;-50
2023/06/21 00:36:07;;;;;;;9.80;8.30;;;;;;;25.15;56.56;101366.12;106849;1267;25342;-50
2023/06/21 00:38:35;;;;;;;8.70;8.00;;;;;;;25.15;56.63;101364.55;107111;1251;25503;-50
2023/06/21 00:41:04;;;;;;;9.60;8.70;;;;;;;25.14;56.65;101364.80;106777;1260;22648;-50
2023/06/21 00:43:32;;;;;;;8.90;8.10;;;;;;;25.15;56.90;101367.02;106977;1265;22639;-49
2023/06/21 00:45:59;;;;;;;9.10;8.10;;;;;;;25.14;56.69;101366.39;107155;1267;25370;-49
2023/06/21 00:48:28;;;;;;;8.60;7.90;;;;;;;25.12;56.72;101362.08;106890;1257;22520;-50
2023/06/21 00:50:58;;;;;;;8.90;8.10;;;;;;;25.12;56.57;101359.63;107039;1251;25442;-50
2023/06/21 00:53:27;;;;;;;8.40;7.70;;;;;;;25.12;56.65;101358.77;107100;1267;25354;-49
2023/06/21 00:55:56;;;;;;;9.10;8.30;;;;;;;25.11;56.78;101356.83;107088;1256;22528;-49
2023/06/21 00:58:24;;;;;;;9.40;8.40;;;;;;;25.12;56.94;101354.84;106833;1262;25354;-49
2023/06/21 01:00:53;;;;;;;10.10;8.60;;;;;;;25.13;57.01;101350.31;106837;1258;25361;-49
2023/06/21 01:03:22;;;;;;;10.80;8.70;;;;;;;25.14;57.16;101347.20;106565;1267;25246;-49
2023/06/21 01:05:57;;;;;;;9.00;8.10;;;;;;;25.16;57.26;101345.66;107036;1251;25350;-49
2023/06/21 01:08:50;;;;;;;9.10;8.30;;;;;;;25.17;57.26;101343.64;107074;1267;25339;-49
2023/06/21 01:11:26;;;;;;;8.90;8.00;;;;;;;25.17;57.57;101342.03;107065;1254;25465;-49
2023/06/21 01:14:12;;;;;;;9.80;8.30;;;;;;;25.17;57.34;101338.81;107078;1264;22531;-49
2023/06/21 01:16:41;;;;;;;8.70;7.90;;;;;;;25.17;57.46;101339.52;107119;1252;22523;-49
2023/06/21 01:19:15;;;;;;;10.80;8.80;;;;;;;25.18;57.67;101337.71;106847;1257;22618;-49
2023/06/21 01:21:42;;;;;;;8.80;7.90;;;;;;;25.19;57.73;101335.68;106826;1264;25350;-50
2023/06/21 01:24:26;;;;;;;9.00;8.20;;;;;;;25.20;57.57;101335.77;106806;1266;25366;-49
2023/06/21 01:27:06;;;;;;;9.90;8.60;;;;;;;25.21;57.51;101332.67;107023;1254;22520;-49
2023/06/21 01:29:34;;;;;;;9.10;8.30;;;;;;;25.22;57.61;101328.88;107026;1255;25344;-49
2023/06/21 01:32:02;;;;;;;9.40;8.40;;;;;;;25.23;57.70;101330.05;106833;1257;25338;-49
2023/06/21 01:34:30;;;;;;;11.20;7.40;;;;;;;25.23;57.69;101329.67;106818;1255;25469;-49
2023/06/21 01:36:58;;;;;;;8.30;7.50;;;;;;;25.23;57.62;101330.94;106919;1257;25350;-49
2023/06/21 01:39:28;;;;;;;8.60;7.80;;;;;;;25.21;57.66;101330.90;106873;1274;25332;-49
2023/06/21 01:41:55;;;;;;;8.30;7.50;;;;;;;25.18;57.72;101328.98;107208;1255;22530;-49
2023/06/21 01:44:22;;;;;;;13.40;8.20;;;;;;;25.17;57.82;101328.16;106856;1267;25360;-49
2023/06/21 01:46:51;;;;;;;8.60;7.80;;;;;;;25.15;57.82;101328.30;106657;1257;25485;-49
2023/06/21 01:49:18;;;;;;;8.70;7.30;;;;;;;25.14;57.94;101325.05;107042;1259;24375;-49
2023/06/21 01:51:46;;;;;;;9.10;7.40;;;;;;;25.14;58.07;101327.70;106882;1256;25350;-49
2023/06/21 01:54:15;;;;;;;8.50;7.60;;;;;;;25.15;58.21;101327.05;106849;1267;25469;-50
2023/06/21 01:56:43;;;;;;;8.20;7.30;;;;;;;25.18;58.19;101327.02;106844;1268;25449;-49
2023/06/21 01:59:11;;;;;;;8.00;7.20;;;;;;;25.20;58.11;101330.95;107110;1263;25350;-50
2023/06/21 02:01:41;;;;;;;8.40;7.60;;;;;;;25.23;58.48;101335.36;106910;1256;25347;-49
2023/06/21 02:04:08;;;;;;;11.40;7.50;;;;;;;25.25;58.39;101337.17;106997;1260;25328;-49
2023/06/21 02:06:35;;;;;;;8.20;7.40;;;;;;;25.28;58.62;101342.07;106767;1262;25329;-50
2023/06/21 02:09:05;;;;;;;9.50;8.10;;;;;;;25.31;58.59;101341.34;106812;1257;25400;-49
2023/06/21 02:11:33;;;;;;;9.60;7.30;;;;;;;25.34;58.46;101343.95;107080;1256;25359;-49
2023/06/21 02:14:00;;;;;;;8.60;7.70;;;;;;;25.37;58.69;101342.14;106903;1265;26152;-49
2023/06/21 02:16:30;;;;;;;8.80;7.20;;;;;;;25.39;58.78;101343.90;106766;1267;25345;-49
2023/06/21 02:18:59;;;;;;;10.70;7.50;;;;;;;25.42;58.64;101347.65;106808;1265;22745;-49
2023/06/21 02:21:26;;;;;;;9.50;7.50;;;;;;;25.44;58.63;101344.61;106871;1254;25416;-49
2023/06/21 02:23:53;;;;;;;8.10;7.20;;;;;;;25.46;58.78;101352.80;106899;1264;25359;-49
2023/06/21 02:26:21;;;;;;;9.40;7.70;;;;;;;25.48;58.60;101357.10;107111;1262;25412;-49
2023/06/21 02:28:48;;;;;;;11.20;8.60;;;;;;;25.50;58.41;101364.45;107214;1267;25321;-50
2023/06/21 02:31:16;;;;;;;8.80;7.10;;;;;;;25.51;58.11;101371.09;106932;1254;25390;-49
2023/06/21 02:33:46;;;;;;;7.70;6.90;;;;;;;25.53;57.94;101367.06;106771;1254;25353;-49
2023/06/21 02:36:14;;;;;;;7.70;7.00;;;;;;;25.54;57.53;101369.64;106838;1267;23427;-49
2023/06/21 02:38:41;;;;;;;8.50;7.50;;;;;;;25.56;57.42;101370.59;107104;1259;25357;-49
2023/06/21 02:41:08;;;;;;;9.90;7.40;;;;;;;25.57;57.36;101372.81;106741;1265;25369;-49
2023/06/21 02:43:35;;;;;;;8.50;7.60;;;;;;;25.58;57.48;101373.29;106950;1267;25328;-49
2023/06/21 02:46:02;;;;;;;9.80;7.90;;;;;;;25.57;57.56;101370.68;106876;1267;25360;-49
2023/06/21 02:48:30;;;;;;;9.60;7.70;;;;;;;25.57;57.40;101371.20;106997;1252;25351;-49
2023/06/21 02:50:57;;;;;;;9.40;7.30;;;;;;;25.56;57.16;101371.11;107193;1267;25350;-49
2023/06/21 02:53:26;;;;;;;9.40;7.70;;;;;;;25.55;57.21;101372.23;106837;1266;25412;-49
2023/06/21 02:55:53;;;;;;;9.20;8.20;;;;;;;25.55;57.07;101373.30;107127;1257;25377;-49
2023/06/21 02:58:21;;;;;;;10.30;9.10;;;;;;;25.56;57.10;101372.48;106881;1259;22662;-48
2023/06/21 03:00:47;;;;;;;9.40;8.50;;;;;;;25.57;57.13;101375.11;107115;1257;25332;-49
2023/06/21 03:03:17;;;;;;;9.20;8.30;;;;;;;25.56;57.11;101374.09;106954;1253;25450;-49
2023/06/21 03:05:45;;;;;;;9.50;8.10;;;;;;;25.54;56.93;101373.56;106760;1261;25236;-49
2023/06/21 03:08:12;;;;;;;9.80;8.50;;;;;;;25.52;56.96;101373.55;107141;1264;25343;-50
2023/06/21 03:10:40;;;;;;;8.50;7.70;;;;;;;25.52;57.01;101373.71;106802;1266;25396;-49
2023/06/21 03:13:07;;;;;;;9.20;8.30;;;;;;;25.53;57.15;101377.36;106902;1267;25338;-49
2023/06/21 03:15:34;;;;;;;9.20;8.20;;;;;;;25.54;57.31;101378.34;107047;1252;22524;-49
2023/06/21 03:18:01;;;;;;;7.80;7.10;;;;;;;25.54;57.63;101377.61;107086;1256;25370;-49
2023/06/21 03:20:29;;;;;;;10.30;7.90;;;;;;;25.55;57.85;101378.82;107041;1256;25408;-50
2023/06/21 03:22:58;;;;;;;16.40;9.40;;;;;;;25.56;57.95;101379.80;107055;1252;25409;-49
2023/06/21 03:25:28;;;;;;;11.90;8.40;;;;;;;25.57;58.03;101376.52;106904;1257;22531;-48
2023/06/21 03:27:59;;;;;;;9.10;7.60;;;;;;;25.58;58.12;101372.87;106897;1256;25363;-55
2023/06/21 03:30:26;;;;;;;8.90;8.00;;;;;;;25.58;57.96;101373.95;106933;1255;22519;-50
2023/06/21 03:32:55;;;;;;;8.10;7.30;;;;;;;25.56;57.96;101371.83;106863;1262;25380;-50
2023/06/21 03:35:22;;;;;;;8.80;7.90;;;;;;;25.54;58.03;101374.42;106935;1259;25468;-50
2023/06/21 03:37:50;;;;;;;10.00;7.70;;;;;;;25.55;58.21;101377.77;106832;1252;24217;-50
2023/06/21 03:40:21;;;;;;;8.60;7.50;;;;;;;25.55;58.27;101379.13;106870;1252;24200;-52
2023/06/21 03:42:48;;;;;;;8.60;7.70;;;;;;;25.56;58.51;101380.65;106784;1255;25322;-50
2023/06/21 03:45:15;;;;;;;9.50;8.00;;;;;;;25.59;58.85;101383.30;106685;1264;25287;-50
2023/06/21 03:47:46;;;;;;;9.60;8.00;;;;;;;25.61;58.89;101382.77;106772;1265;25425;-49
2023/06/21 03:50:13;;;;;;;8.90;8.10;;;;;;;25.64;59.00;101385.95;106700;1260;22538;-49
2023/06/21 03:52:43;;;;;;;11.70;8.30;;;;;;;25.64;58.72;101388.41;107122;1253;25517;-49
2023/06/21 03:55:10;;;;;;;8.60;7.70;;;;;;;25.63;58.74;101395.96;106901;1267;25537;-49
2023/06/21 03:57:38;;;;;;;9.00;7.90;;;;;;;25.61;59.06;101401.77;106855;1260;25573;-49
2023/06/21 04:00:09;;;;;;;10.60;8.10;;;;;;;25.58;59.41;101395.42;106931;1257;25354;-49
2023/06/21 04:02:43;;;;;;;8.20;7.40;;;;;;;25.56;59.75;101389.74;107095;1264;25398;-50
2023/06/21 04:05:10;;;;;;;8.60;7.80;;;;;;;25.59;60.05;101386.16;106716;1260;25237;-49
2023/06/21 04:07:38;;;;;;;8.30;7.40;;;;;;;25.61;59.78;101389.55;106575;1263;24398;-49
2023/06/21 04:10:06;;;;;;;9.20;8.00;;;;;;;25.62;59.70;101393.23;106775;1255;25337;-49
2023/06/21 04:12:33;;;;;;;8.60;7.30;;;;;;;25.62;59.43;101393.94;106736;1255;25428;-49
2023/06/21 04:15:00;;;;;;;8.80;7.70;;;;;;;25.62;59.04;101398.54;106733;1267;25355;-49
2023/06/21 04:17:28;;;;;;;8.10;7.30;;;;;;;25.62;58.92;101391.93;106771;1258;25467;-50
2023/06/21 04:19:55;;;;;;;9.30;7.70;;;;;;;25.64;58.69;101391.84;106788;1258;25339;-49
2023/06/21 04:22:24;;;;;;;10.90;7.30;;;;;;;25.64;59.04;101386.98;106725;1258;25454;-49
2023/06/21 04:24:51;;;;;;;7.60;6.90;;;;;;;25.66;58.64;101387.05;106498;1272;25367;-50
2023/06/21 04:27:18;;;;;;;7.80;7.10;;;;;;;25.66;58.28;101392.02;106770;1258;23905;-49
2023/06/21 04:29:48;;;;;;;8.20;7.50;;;;;;;25.67;58.10;101394.45;106723;1255;25374;-50
2023/06/21 04:32:15;;;;;;;7.80;7.10;;;;;;;25.69;57.87;101402.06;106723;1268;25364;-49
2023/06/21 04:34:48;;;;;;;7.40;6.70;;;;;;;25.72;57.86;101400.21;106714;1255;25520;-49
2023/06/21 04:37:18;;;;;;;6.90;6.20;;;;;;;25.78;57.55;101402.48;106687;1267;25357;-49
2023/06/21 04:39:45;;;;;;;7.10;6.20;;;;;;;25.81;56.95;101401.87;107113;1264;25332;-49
2023/06/21 04:42:12;;;;;;;7.20;6.50;;;;;;;25.84;56.63;101404.36;107130;1256;26884;-50
2023/06/21 04:44:39;;;;;;;6.70;6.10;;;;;;;25.79;56.91;101405.04;107299;1267;22780;-49
2023/06/21 04:47:06;;;;;;;8.40;6.90;;;;;;;25.80;56.96;101411.55;107134;1265;25399;-50
2023/06/21 04:49:33;;;;;;;6.80;6.20;;;;;;;25.82;56.86;101412.98;107159;1259;22520;-49
2023/06/21 04:52:00;;;;;;;7.90;6.80;;;;;;;25.87;57.05;101421.16;107123;1267;25377;-49
2023/06/21 04:54:29;;;;;;;6.90;6.30;;;;;;;25.97;57.15;101422.70;107147;1256;25398;-49
2023/06/21 04:56:56;;;;;;;7.50;6.90;;;;;;;26.02;57.43;101427.73;107084;1256;25409;-49
2023/06/21 04:59:23;;;;;;;7.20;6.50;;;;;;;26.04;57.54;101432.71;107087;1258;25332;-50
2023/06/21 05:01:50;;;;;;;7.10;6.40;;;;;;;26.05;57.65;101435.45;107050;1257;25336;-49
2023/06/21 05:04:17;;;;;;;7.10;6.40;;;;;;;26.06;57.93;101438.39;107000;1251;25412;-49
2023/06/21 05:06:44;;;;;;;7.40;6.50;;;;;;;26.06;58.24;101433.43;106993;1257;25342;-49
2023/06/21 05:09:10;;;;;;;7.30;6.70;;;;;;;26.06;57.92;101433.44;107068;1252;25332;-49
2023/06/21 05:11:38;;;;;;;7.30;6.70;;;;;;;26.07;57.55;101434.62;106808;1259;22563;-49
2023/06/21 05:14:05;;;;;;;7.00;6.40;;;;;;;26.10;56.80;101434.92;107134;1257;25343;-49
2023/06/21 05:16:32;;;;;;;6.70;6.10;;;;;;;26.15;56.76;101437.72;107197;1256;25400;-49
2023/06/21 05:18:59;;;;;;;6.60;6.00;;;;;;;26.24;56.87;101438.45;107064;1263;25321;-49
2023/06/21 05:21:26;;;;;;;7.00;6.40;;;;;;;26.40;56.68;101436.70;107096;1256;25363;-49
2023/06/21 05:23:53;;;;;;;6.80;6.20;;;;;;;26.65;56.58;101433.16;107167;1252;23314;-50
2023/06/21 05:26:20;;;;;;;6.70;6.00;;;;;;;26.95;56.04;101437.50;107117;1263;24207;-48
2023/06/21 05:28:47;;;;;;;7.00;6.40;;;;;;;27.15;55.27;101440.55;107095;1256;25364;-49
2023/06/21 05:31:14;;;;;;;6.80;6.10;;;;;;;27.25;54.74;101442.77;107077;1257;25406;-49
2023/06/21 05:33:42;;;;;;;7.90;6.30;;;;;;;27.25;54.18;101445.57;107048;1264;25351;-49
2023/06/21 05:36:09;;;;;;;7.60;6.80;;;;;;;27.20;54.18;101445.42;107156;1260;25424;-48
2023/06/21 05:38:37;;;;;;;8.70;6.80;;;;;;;27.12;54.42;101452.14;107132;1256;22517;-48
2023/06/21 05:41:04;;;;;;;12.30;7.00;;;;;;;27.04;54.55;101454.98;107047;1251;25342;-49
2023/06/21 05:43:32;;;;;;;7.40;6.70;;;;;;;26.93;54.49;101454.27;107099;1263;25507;-49
2023/06/21 05:45:59;;;;;;;6.90;6.20;;;;;;;26.83;54.80;101451.67;107100;1252;25332;-48
2023/06/21 05:48:27;;;;;;;8.10;6.40;;;;;;;26.74;55.06;101454.64;107133;1259;25332;-49
2023/06/21 05:50:54;;;;;;;7.80;7.00;;;;;;;26.65;54.27;101460.71;107000;1263;25322;-49
2023/06/21 05:53:22;;;;;;;7.30;6.60;;;;;;;26.53;53.49;101459.13;107097;1257;25398;-48
2023/06/21 05:55:49;;;;;;;7.00;6.40;;;;;;;26.44;53.40;101460.44;107141;1256;25332;-49
2023/06/21 05:58:19;;;;;;;7.90;6.20;;;;;;;26.34;53.17;101459.91;106997;1264;24221;-48
2023/06/21 06:00:47;;;;;;;6.50;5.90;;;;;;;26.26;52.96;101462.02;107070;1256;22943;-49
2023/06/21 06:03:14;;;;;;;6.40;5.90;;;;;;;26.19;52.88;101463.95;107051;1264;25360;-48
2023/06/21 06:05:41;;;;;;;6.60;6.10;;;;;;;26.13;53.14;101457.48;107048;1253;25453;-49
2023/06/21 06:08:08;;;;;;;5.40;4.90;;;;;;;26.07;52.23;101466.29;106828;1267;25485;-49
2023/06/21 06:10:35;;;;;;;5.20;4.60;;;;;;;26.00;51.91;101470.51;107019;1261;25357;-49
2023/06/21 06:13:02;;;;;;;5.20;4.70;;;;;;;25.95;51.83;101469.63;106909;1257;24266;-48
2023/06/21 06:15:29;;;;;;;9.00;5.30;;;;;;;25.89;50.97;101472.39;107046;1263;25440;-49
2023/06/21 06:17:56;;;;;;;9.30;6.00;;;;;;;25.82;51.30;101478.08;107120;1256;25337;-48
2023/06/21 06:20:23;;;;;;;11.40;5.60;;;;;;;25.76;50.93;101483.63;107086;1256;25332;-49
2023/06/21 06:22:51;;;;;;;11.50;5.20;;;;;;;25.68;50.25;101497.24;107112;1265;25544;-49
2023/06/21 06:25:18;;;;;;;26.30;7.20;;;;;;;25.58;49.27;101520.68;107162;1259;24213;-49
2023/06/21 06:27:45;;;;;;;17.90;8.20;;;;;;;25.50;51.44;101549.17;106914;1260;25335;-49
2023/06/21 06:30:13;;;;;;;17.50;7.70;;;;;;;25.42;52.82;101570.55;106983;1253;25459;-50
2023/06/21 06:32:40;;;;;;;15.20;6.80;;;;;;;25.30;52.13;101521.30;107030;1256;25328;-50
2023/06/21 06:35:07;;;;;;;13.80;7.70;;;;;;;25.14;52.60;101463.16;106851;1258;25409;-50
2023/06/21 06:37:35;;;;;;;10.80;6.70;;;;;;;24.94;54.42;101455.88;106985;1257;22511;-51
2023/06/21 06:40:05;;;;;;;14.80;7.90;;;;;;;24.77;56.41;101471.84;107089;1264;25412;-51
2023/06/21 06:42:32;;;;;;;9.70;4.90;;;;;;;24.63;56.19;101491.20;107115;1262;22533;-50
2023/06/21 06:44:59;;;;;;;7.60;4.40;;;;;;;24.52;54.58;101495.34;107176;1264;25405;-49
2023/06/21 06:47:28;;;;;;;11.70;5.20;;;;;;;24.44;54.02;101499.44;107207;1265;25482;-48
2023/06/21 06:49:55;;;;;;;10.40;5.40;;;;;;;24.40;54.08;101498.31;107176;1257;25399;-49
2023/06/21 06:52:23;;;;;;;15.90;6.30;;;;;;;24.39;54.17;101497.34;106867;1255;23472;-51
2023/06/21 06:54:49;;;;;;;5.80;4.90;;;;;;;24.39;54.31;101492.34;107063;1256;22518;-48
2023/06/21 06:57:16;;;;;;;8.90;4.80;;;;;;;24.41;54.22;101489.19;107115;1264;25507;-48
2023/06/21 06:59:56;;;;;;;7.10;4.70;;;;;;;24.44;54.38;101484.39;106807;1268;25354;-48
2023/06/21 07:02:23;;;;;;;10.00;4.50;;;;;;;24.48;54.56;101475.60;106801;1267;25485;-49
2023/06/21 07:04:50;;;;;;;7.60;4.30;;;;;;;24.52;54.23;101470.91;106853;1267;25413;-48
2023/06/21 07:07:18;;;;;;;6.80;4.40;;;;;;;24.56;54.30;101470.97;107083;1256;25399;-49
2023/06/21 07:09:45;;;;;;;5.50;4.30;;;;;;;24.60;53.99;101471.89;106819;1259;25392;-49
2023/06/21 07:12:12;;;;;;;15.80;5.60;;;;;;;24.66;54.23;101474.53;107005;1265;25332;-49
2023/06/21 07:14:39;;;;;;;20.00;8.00;;;;;;;24.70;54.52;101474.20;107134;1256;25478;-49
2023/06/21 07:17:06;;;;;;;24.30;7.20;;;;;;;24.75;54.83;101473.19;106842;1267;25354;-48
2023/06/21 07:19:33;;;;;;;26.50;7.50;;;;;;;24.81;55.17;101470.88;107056;1257;25378;-48
2023/06/21 07:22:00;;;;;;;22.60;7.30;;;;;;;24.85;56.35;101471.26;107080;1252;25354;-49
2023/06/21 07:24:27;;;;;;;17.60;6.50;;;;;;;24.90;57.44;101476.22;106876;1259;25444;-52
2023/06/21 07:26:54;;;;;;;17.00;6.10;;;;;;;24.93;58.01;101474.21;106837;1255;25794;-50
2023/06/21 07:29:21;;;;;;;12.70;5.50;;;;;;;24.97;58.14;101481.58;106942;1264;22516;-51
2023/06/21 07:31:48;;;;;;;8.20;5.10;;;;;;;24.98;58.33;101488.23;106988;1256;25501;-50
2023/06/21 07:34:15;;;;;;;7.80;5.40;;;;;;;24.94;57.79;101486.08;107213;1257;25357;-51
2023/06/21 07:36:42;;;;;;;7.80;5.00;;;;;;;24.87;57.85;101484.23;107077;1264;25357;-50
2023/06/21 07:39:09;;;;;;;7.50;5.30;;;;;;;24.82;58.11;101487.25;106849;1270;25479;-50
2023/06/21 07:41:36;;;;;;;7.40;5.10;;;;;;;24.82;58.28;101490.63;107151;1256;22538;-50
2023/06/21 07:44:03;;;;;;;6.50;5.50;;;;;;;24.82;58.41;101495.23;107085;1253;24266;-50
2023/06/21 07:46:31;;;;;;;6.00;5.40;;;;;;;24.81;58.59;101499.39;107183;1263;25350;-49
2023/06/21 07:49:00;;;;;;;6.50;5.80;;;;;;;24.81;58.88;101509.02;107067;1261;25397;-49
2023/06/21 07:51:27;;;;;;;6.10;5.40;;;;;;;24.81;59.47;101511.80;107000;1263;22517;-50
2023/06/21 07:53:54;;;;;;;6.20;5.60;;;;;;;24.83;59.55;101512.73;107428;1255;22871;-49
2023/06/21 07:56:21;;;;;;;7.60;5.20;;;;;;;24.87;59.47;101514.94;107221;1252;22532;-49
2023/06/21 07:58:48;;;;;;;5.50;5.00;;;;;;;24.92;59.34;101518.14;107156;1253;25479;-50
2023/06/21 08:01:15;;;;;;;6.40;5.10;;;;;;;24.98;59.11;101514.34;107008;1258;25331;-49
2023/06/21 08:03:42;;;;;;;7.10;5.50;;;;;;;25.04;59.04;101513.18;107161;1255;24204;-49
2023/06/21 08:06:09;;;;;;;6.50;5.40;;;;;;;25.12;58.96;101515.86;107115;1258;25332;-50
2023/06/21 08:08:37;;;;;;;5.90;5.20;;;;;;;25.19;58.44;101510.38;107139;1256;25338;-50
2023/06/21 08:11:04;;;;;;;6.20;4.70;;;;;;;25.27;58.88;101509.09;107043;1256;24208;-50
2023/06/21 08:13:32;;;;;;;7.50;5.00;;;;;;;25.37;58.77;101510.67;107016;1257;25357;-52
2023/06/21 08:16:00;;;;;;;9.20;5.60;;;;;;;25.46;57.84;101514.48;107114;1268;25360;-50
2023/06/21 08:18:27;;;;;;;7.40;5.50;;;;;;;25.56;57.90;101520.52;106798;1262;24198;-50
2023/06/21 08:20:54;;;;;;;6.20;5.40;;;;;;;25.67;57.27;101525.05;107058;1257;25332;-50
2023/06/21 08:23:21;;;;;;;7.20;6.30;;;;;;;25.77;57.20;101532.11;107003;1255;25332;-50
2023/06/21 08:25:48;;;;;;;6.90;6.30;;;;;;;25.88;57.56;101530.62;107072;1256;25409;-50
2023/06/21 08:28:16;;;;;;;10.30;7.80;;;;;;;25.98;58.07;101537.16;106954;1265;24196;-51
2023/06/21 08:30:43;;;;;;;8.60;7.80;;;;;;;26.05;58.68;101537.53;106786;1271;25505;-52
2023/06/21 08:33:10;;;;;;;7.80;6.70;;;;;;;26.12;59.05;101540.62;106957;1265;25520;-52
2023/06/21 08:35:40;;;;;;;8.90;8.00;;;;;;;26.18;59.52;101541.18;107059;1256;24353;-52
2023/06/21 08:38:11;;;;;;;9.80;7.00;;;;;;;26.24;59.31;101541.45;107015;1254;25408;-52
2023/06/21 08:40:45;;;;;;;8.50;7.60;;;;;;;26.30;59.20;101540.47;107038;1265;25485;-52
2023/06/21 08:43:12;;;;;;;8.10;7.30;;;;;;;26.36;58.88;101546.02;107185;1264;22631;-50
2023/06/21 08:45:40;;;;;;;7.20;6.60;;;;;;;26.42;58.65;101544.70;107118;1260;25453;-50
2023/06/21 08:48:07;;;;;;;10.00;7.80;;;;;;;26.47;58.34;101544.88;107238;1256;25504;-50
2023/06/21 08:50:34;;;;;;;8.50;7.60;;;;;;;26.52;58.39;101547.84;107026;1257;22523;-50
2023/06/21 08:53:05;;;;;;;8.20;7.50;;;;;;;26.57;57.88;101550.85;106865;1257;25482;-50
2023/06/21 08:55:35;;;;;;;8.20;7.40;;;;;;;26.62;57.93;101552.58;107181;1257;25450;-50
2023/06/21 08:58:06;;;;;;;8.70;6.50;;;;;;;26.69;58.24;101557.04;107197;1262;25311;-50
2023/06/21 09:00:43;;;;;;;7.10;6.30;;;;;;;26.77;57.23;101553.57;106795;1266;25318;-50
2023/06/21 09:03:31;;;;;;;7.30;6.70;;;;;;;26.88;56.47;101558.13;107144;1262;26662;-51
2023/06/21 09:06:03;;;;;;;8.10;6.80;;;;;;;26.98;55.34;101556.58;107025;1257;24346;-52
2023/06/21 09:08:31;;;;;;;6.70;6.00;;;;;;;27.06;54.53;101555.45;107113;1265;25399;-52
2023/06/21 09:10:58;;;;;;;7.30;6.30;;;;;;;27.12;54.34;101557.27;107107;1263;25337;-52
2023/06/21 09:13:27;;;;;;;7.20;6.50;;;;;;;27.21;54.23;101556.89;107016;1265;25274;-51
2023/06/21 09:15:55;;;;;;;7.30;6.50;;;;;;;27.31;53.58;101555.90;107031;1267;25375;-51
2023/06/21 09:18:23;;;;;;;9.60;6.90;;;;;;;27.43;53.40;101551.83;106871;1268;25408;-51
2023/06/21 09:20:50;;;;;;;7.20;6.50;;;;;;;27.55;53.04;101551.40;106981;1258;25431;-51
2023/06/21 09:23:18;;;;;;;7.80;6.60;;;;;;;27.66;53.15;101546.56;107155;1255;25472;-51
2023/06/21 09:25:45;;;;;;;7.10;6.20;;;;;;;27.77;53.42;101546.02;107022;1259;25417;-52
2023/06/21 09:28:12;;;;;;;10.10;6.30;;;;;;;27.85;52.99;101541.02;106957;1269;25327;-52
2023/06/21 09:30:41;;;;;;;7.10;6.40;;;;;;;27.95;52.89;101542.89;107039;1260;25357;-50
2023/06/21 09:33:10;;;;;;;6.70;6.10;;;;;;;28.04;52.26;101540.02;107047;1263;22575;-51
2023/06/21 09:35:38;;;;;;;6.90;6.10;;;;;;;28.13;52.05;101536.64;107227;1256;25357;-51
2023/06/21 09:38:31;;;;;;;8.40;7.10;;;;;;;28.23;51.65;101538.30;107096;1263;25412;-50
2023/06/21 09:40:58;;;;;;;8.10;6.10;;;;;;;28.33;50.00;101533.35;107223;1266;25325;-50
2023/06/21 09:43:26;;;;;;;8.00;6.10;;;;;;;28.39;49.36;101529.95;107071;1263;25449;-50
2023/06/21 09:46:03;;;;;;;6.90;6.30;;;;;;;28.45;49.61;101528.36;107131;1269;25357;-51
2023/06/21 09:48:32;;;;;;;7.70;6.90;;;;;;;28.52;49.66;101527.70;107013;1255;22524;-50
2023/06/21 09:51:04;;;;;;;10.00;6.50;;;;;;;28.59;49.38;101536.31;106798;1259;23860;-50
2023/06/21 09:53:31;;;;;;;8.10;6.00;;;;;;;28.66;49.22;101540.89;106543;1273;22523;-50
2023/06/21 09:56:01;;;;;;;7.40;6.10;;;;;;;28.71;49.39;101540.77;106752;1253;22518;-50
2023/06/21 09:58:36;;;;;;;9.50;6.70;;;;;;;28.77;49.59;101541.34;106880;1255;25325;-50
2023/06/21 10:01:06;;;;;;;6.70;6.10;;;;;;;28.82;49.41;101535.54;107157;1269;25363;-51
2023/06/21 10:03:34;;;;;;;9.30;6.70;;;;;;;28.85;49.07;101531.36;106830;1258;25285;-50
2023/06/21 10:06:02;;;;;;;8.60;6.00;;;;;;;28.88;49.27;101536.80;106975;1273;24375;-49
2023/06/21 10:08:38;;;;;;;6.50;5.90;;;;;;;28.91;49.71;101543.83;106941;1256;25453;-50
2023/06/21 10:11:05;;;;;;;6.70;5.80;;;;;;;28.96;49.71;101547.14;107132;1268;25372;-50
2023/06/21 10:13:33;;;;;;;6.40;5.50;;;;;;;29.00;49.72;101546.52;107117;1267;22559;-50
2023/06/21 10:16:01;;;;;;;7.20;5.40;;;;;;;29.05;49.14;101547.20;106953;1268;25363;-50
2023/06/21 10:18:29;;;;;;;6.20;5.50;;;;;;;29.09;49.38;101547.36;107146;1266;25381;-51
2023/06/21 10:20:57;;;;;;;7.70;6.10;;;;;;;29.14;49.58;101548.88;107245;1264;23864;-50
2023/06/21 10:23:31;;;;;;;8.40;6.30;;;;;;;29.19;49.45;101547.20;106940;1268;24506;-50
2023/06/21 10:26:00;;;;;;;7.50;6.20;;;;;;;29.24;49.61;101546.89;107157;1263;23857;-51
2023/06/21 10:28:28;;;;;;;6.40;5.80;;;;;;;29.29;49.59;101541.42;106887;1257;22645;-51
2023/06/21 10:30:57;;;;;;;6.40;5.80;;;;;;;29.34;49.67;101537.98;106947;1267;24043;-50
2023/06/21 10:33:24;;;;;;;6.10;5.60;;;;;;;29.39;49.65;101537.19;106833;1259;25374;-51
2023/06/21 10:35:51;;;;;;;8.20;5.60;;;;;;;29.43;49.56;101533.79;107112;1260;25321;-50
2023/06/21 10:38:35;;;;;;;5.80;5.30;;;;;;;29.46;49.55;101530.14;106986;1265;25332;-51
2023/06/21 10:41:06;;;;;;;6.90;5.80;;;;;;;29.51;49.70;101532.52;107152;1269;25349;-51
2023/06/21 10:43:33;;;;;;;;;;;;;;;29.55;49.98;101533.74;107057;1269;25362;-51
2023/06/21 10:46:00;;;;;;;6.10;5.50;;;;;;;29.61;49.49;101532.02;106598;1259;25360;-50
2023/06/21 10:48:31;;;;;;;6.20;5.70;;;;;;;29.63;48.90;101528.72;106861;1268;25484;-50
2023/06/21 10:50:58;;;;;;;6.90;6.30;;;;;;;29.64;48.63;101528.69;106948;1265;25409;-51
2023/06/21 10:53:25;;;;;;;7.20;6.40;;;;;;;29.62;49.06;101530.64;106918;1256;25324;-50
2023/06/21 10:55:52;;;;;;;7.10;6.40;;;;;;;29.59;49.64;101532.18;106973;1259;25565;-50
2023/06/21 10:58:19;;;;;;;7.80;6.40;;;;;;;29.55;49.93;101533.94;107086;1256;25370;-51
2023/06/21 11:00:47;;;;;;;6.40;5.90;;;;;;;29.52;50.39;101533.48;107049;1272;24031;-51
2023/06/21 11:03:16;;;;;;;6.80;6.20;;;;;;;29.51;50.49;101530.56;107040;1256;22526;-50
2023/06/21 11:05:44;;;;;;;6.60;6.00;;;;;;;29.49;50.49;101524.30;106892;1253;25380;-50
2023/06/21 11:08:11;;;;;;;7.30;6.20;;;;;;;29.48;50.49;101523.19;107126;1256;25485;-50
2023/06/21 11:10:49;;;;;;;6.90;6.10;;;;;;;29.45;50.24;101526.08;107140;1258;24445;-51
2023/06/21 11:13:36;;;;;;;6.50;5.90;;;;;;;29.47;50.64;101531.27;106910;1256;25356;-52
2023/06/21 11:16:16;;;;;;;10.30;6.40;;;;;;;29.49;50.58;101531.97;106852;1266;25315;-51
2023/06/21 11:18:55;;;;;;;7.20;6.60;;;;;;;29.50;50.19;101529.77;106955;1269;25485;-51
2023/06/21 11:21:41;;;;;;;8.00;6.50;;;;;;;29.47;50.10;101535.22;107083;1270;25371;-51
2023/06/21 11:24:11;;;;;;;15.70;6.50;;;;;;;29.40;50.23;101537.95;107008;1272;25401;-50